Time;durP1;ratioP1;P1;durP2;ratioP2;P2;SDS_P1;SDS_P2;PMS_P1;PMS_P2;Temp;Humidity;BMP_temperature;BMP_pressure;BME280_temperature;BME280_humidity;BME280_pressure;Samples;Min_cycle;Max_cycle;Signal;HPM_P1;HPM_P2
2023/05/17 00:04:08;;;;;;;6.32;1.40;;;;;;;;;;10040804;28;20064;-72
2023/05/17 00:09:02;;;;;;;3.15;1.20;;;;;;;;;;10044167;28;20065;-72
2023/05/17 00:13:56;;;;;;;1.63;1.40;;;;;;;;;;10036388;28;20504;-70
2023/05/17 00:18:50;;;;;;;5.53;1.10;;;;;;;;;;10035975;28;20501;-71
2023/05/17 00:23:44;;;;;;;2.67;1.05;;;;;;;;;;10039931;28;20492;-71
2023/05/17 00:28:37;;;;;;;1.20;1.10;;;;;;;;;;10031926;28;20062;-72
2023/05/17 00:33:30;;;;;;;0.77;0.77;;;;;;;;;;10034444;28;20105;-71
2023/05/17 00:38:24;;;;;;;1.33;1.23;;;;;;;;;;10030149;28;20519;-71
2023/05/17 00:43:17;;;;;;;1.38;1.27;;;;;;;;;;10030594;28;20050;-71
2023/05/17 00:48:11;;;;;;;1.42;1.33;;;;;;;;;;10037497;28;20054;-72
2023/05/17 00:53:04;;;;;;;2.33;1.50;;;;;;;;;;10044134;28;20088;-72
2023/05/17 00:57:57;;;;;;;2.63;1.73;;;;;;;;;;10054302;28;20050;-73
2023/05/17 01:02:50;;;;;;;1.30;1.20;;;;;;;;;;10029753;28;20125;-73
2023/05/17 01:07:43;;;;;;;1.20;1.10;;;;;;;;;;10040126;28;20054;-72
2023/05/17 01:13:03;;;;;;;1.92;1.70;;;;;;;;;;10029872;28;20046;-72
2023/05/17 01:18:15;;;;;;;4.57;1.70;;;;;;;;;;10040164;28;20056;-72
2023/05/17 01:23:30;;;;;;;7.43;1.65;;;;;;;;;;10028577;28;20076;-72
2023/05/17 01:28:24;;;;;;;3.85;1.33;;;;;;;;;;10016070;28;20058;-72
2023/05/17 01:33:19;;;;;;;1.42;1.33;;;;;;;;;;10033036;28;20132;-73
2023/05/17 01:38:12;;;;;;;2.20;1.38;;;;;;;;;;10032426;28;20501;-73
2023/05/17 01:43:22;;;;;;;2.35;1.10;;;;;;;;;;10045285;28;20058;-72
2023/05/17 01:48:23;;;;;;;;;;;;;;;;;;10042957;28;20045;-72
2023/05/17 01:53:45;;;;;;;4.55;1.20;;;;;;;;;;10028505;28;19964;-72
2023/05/17 01:58:47;;;;;;;1.20;1.02;;;;;;;;;;10031059;28;20095;-71
2023/05/17 02:03:40;;;;;;;1.38;1.27;;;;;;;;;;10028070;28;20058;-72
2023/05/17 02:08:34;;;;;;;2.45;0.90;;;;;;;;;;10032649;28;20058;-72
2023/05/17 02:13:27;;;;;;;1.30;1.00;;;;;;;;;;10030355;28;20494;-72
2023/05/17 02:18:20;;;;;;;3.83;1.45;;;;;;;;;;10048617;28;20116;-72
2023/05/17 02:23:13;;;;;;;1.25;1.10;;;;;;;;;;10026211;28;20504;-71
2023/05/17 02:28:07;;;;;;;1.40;1.30;;;;;;;;;;10041208;28;20053;-71
2023/05/17 02:33:00;;;;;;;1.60;1.50;;;;;;;;;;10047984;28;20073;-71
2023/05/17 02:37:53;;;;;;;1.92;1.80;;;;;;;;;;10048771;28;20056;-71
2023/05/17 02:42:47;;;;;;;2.42;1.90;;;;;;;;;;10048129;28;20057;-70
2023/05/17 02:47:41;;;;;;;1.63;1.52;;;;;;;;;;10049070;28;20058;-71
2023/05/17 02:52:34;;;;;;;1.90;1.80;;;;;;;;;;10048442;28;20502;-71
2023/05/17 02:57:30;;;;;;;1.85;1.60;;;;;;;;;;10012872;28;20571;-74
2023/05/17 03:02:23;;;;;;;3.40;1.85;;;;;;;;;;10048029;28;20060;-70
2023/05/17 03:07:18;;;;;;;3.28;1.42;;;;;;;;;;10049419;28;20049;-70
2023/05/17 03:12:12;;;;;;;2.63;1.67;;;;;;;;;;10043208;28;20417;-70
2023/05/17 03:17:05;;;;;;;1.38;1.27;;;;;;;;;;10036752;28;20057;-72
2023/05/17 03:22:00;;;;;;;10.60;1.30;;;;;;;;;;9999202;28;20096;-71
2023/05/17 03:26:56;;;;;;;2.25;1.33;;;;;;;;;;10027578;28;20053;-72
2023/05/17 03:31:50;;;;;;;1.42;1.30;;;;;;;;;;10005759;28;20046;-71
2023/05/17 03:36:43;;;;;;;1.73;1.48;;;;;;;;;;10027368;28;20517;-71
2023/05/17 03:41:37;;;;;;;1.67;1.40;;;;;;;;;;10031069;28;20056;-71
2023/05/17 03:46:30;;;;;;;2.63;1.42;;;;;;;;;;10020284;28;20128;-71
2023/05/17 03:51:24;;;;;;;1.50;1.40;;;;;;;;;;10028148;28;20046;-70
2023/05/17 03:56:18;;;;;;;1.35;1.25;;;;;;;;;;10044325;28;20053;-71
2023/05/17 04:01:11;;;;;;;4.60;1.45;;;;;;;;;;10028273;28;20050;-70
2023/05/17 04:06:07;;;;;;;1.40;1.30;;;;;;;;;;10040522;28;20568;-69
2023/05/17 04:11:09;;;;;;;1.15;1.10;;;;;;;;;;10021959;28;20104;-70
2023/05/17 04:16:01;;;;;;;2.38;1.30;;;;;;;;;;10020381;28;20054;-69
2023/05/17 04:20:55;;;;;;;2.33;1.70;;;;;;;;;;10022751;28;20116;-71
2023/05/17 04:25:49;;;;;;;1.17;1.15;;;;;;;;;;10022296;28;20085;-70
2023/05/17 04:30:44;;;;;;;1.58;1.30;;;;;;;;;;10028024;28;20050;-70
2023/05/17 04:35:38;;;;;;;1.45;1.20;;;;;;;;;;10024204;28;20405;-70
2023/05/17 04:40:31;;;;;;;1.88;1.33;;;;;;;;;;10043307;28;20049;-70
2023/05/17 04:45:26;;;;;;;2.25;1.70;;;;;;;;;;10020065;28;20081;-70
2023/05/17 04:50:23;;;;;;;2.90;1.83;;;;;;;;;;10016518;28;20046;-70
2023/05/17 04:55:16;;;;;;;1.95;1.50;;;;;;;;;;10025729;28;20297;-70
2023/05/17 05:00:14;;;;;;;1.55;1.10;;;;;;;;;;10020166;28;20049;-70
2023/05/17 05:05:14;;;;;;;1.77;1.58;;;;;;;;;;10021755;28;20140;-70
2023/05/17 05:10:10;;;;;;;2.03;1.60;;;;;;;;;;10042098;28;20053;-70
2023/05/17 05:15:04;;;;;;;2.97;1.50;;;;;;;;;;10026469;28;20064;-70
2023/05/17 05:20:00;;;;;;;1.80;1.60;;;;;;;;;;10019766;28;20145;-70
2023/05/17 05:24:54;;;;;;;1.40;1.30;;;;;;;;;;10036660;28;20061;-70
2023/05/17 05:29:48;;;;;;;1.75;1.30;;;;;;;;;;10038818;28;20088;-70
2023/05/17 05:34:42;;;;;;;2.35;1.98;;;;;;;;;;10024522;28;20046;-70
2023/05/17 05:39:35;;;;;;;3.13;1.30;;;;;;;;;;10042849;28;20045;-69
2023/05/17 05:44:31;;;;;;;3.22;1.50;;;;;;;;;;10046364;28;20173;-69
2023/05/17 05:49:25;;;;;;;2.60;2.00;;;;;;;;;;10039032;28;20042;-69
2023/05/17 05:54:22;;;;;;;3.15;1.70;;;;;;;;;;10031841;28;20080;-67
2023/05/17 05:59:17;;;;;;;1.88;1.75;;;;;;;;;;10033604;28;20041;-67
2023/05/17 06:04:11;;;;;;;4.22;2.13;;;;;;;;;;10032109;28;20116;-67
2023/05/17 06:09:10;;;;;;;1.90;1.70;;;;;;;;;;10033320;28;20145;-70
2023/05/17 06:14:04;;;;;;;2.42;1.70;;;;;;;;;;10033538;28;20107;-70
2023/05/17 06:18:58;;;;;;;3.97;2.35;;;;;;;;;;10035247;28;20060;-70
2023/05/17 06:23:52;;;;;;;3.15;2.42;;;;;;;;;;10032077;28;20092;-69
2023/05/17 06:28:45;;;;;;;4.88;2.50;;;;;;;;;;10034466;28;20045;-69
2023/05/17 06:33:39;;;;;;;3.00;2.28;;;;;;;;;;10027827;28;20061;-69
2023/05/17 06:38:33;;;;;;;3.45;2.90;;;;;;;;;;10031797;28;20070;-69
2023/05/17 06:43:27;;;;;;;3.13;2.92;;;;;;;;;;10029809;28;20073;-69
2023/05/17 06:48:21;;;;;;;3.83;2.55;;;;;;;;;;10025674;28;20050;-69
2023/05/17 06:53:15;;;;;;;3.95;2.92;;;;;;;;;;10026834;28;20104;-69
2023/05/17 06:58:09;;;;;;;3.85;3.00;;;;;;;;;;10041563;28;20100;-69
2023/05/17 07:03:03;;;;;;;3.00;2.38;;;;;;;;;;10033399;28;20057;-69
2023/05/17 07:08:00;;;;;;;2.58;2.28;;;;;;;;;;10042671;28;20046;-69
2023/05/17 07:12:53;;;;;;;6.63;2.13;;;;;;;;;;10026579;28;20061;-69
2023/05/17 07:17:46;;;;;;;5.97;1.90;;;;;;;;;;10032046;28;20468;-66
2023/05/17 07:22:40;;;;;;;4.90;2.00;;;;;;;;;;10032424;28;20140;-67
2023/05/17 07:27:34;;;;;;;2.28;2.08;;;;;;;;;;10028458;28;20458;-67
2023/05/17 07:32:29;;;;;;;3.03;1.40;;;;;;;;;;10033428;28;20124;-67
2023/05/17 07:37:23;;;;;;;1.77;1.25;;;;;;;;;;10034454;28;20568;-67
2023/05/17 07:42:17;;;;;;;5.57;1.92;;;;;;;;;;10031835;28;20417;-67
2023/05/17 07:47:11;;;;;;;5.18;1.52;;;;;;;;;;10020080;28;20459;-67
2023/05/17 07:52:04;;;;;;;2.85;1.30;;;;;;;;;;10030377;28;20171;-68
2023/05/17 07:56:59;;;;;;;4.20;1.73;;;;;;;;;;10025631;28;20402;-67
2023/05/17 08:01:53;;;;;;;1.50;1.40;;;;;;;;;;10026353;28;20049;-66
2023/05/17 08:06:47;;;;;;;2.05;1.10;;;;;;;;;;10023449;28;20420;-64
2023/05/17 08:11:44;;;;;;;1.17;0.80;;;;;;;;;;10019753;28;20061;-73
2023/05/17 08:16:39;;;;;;;3.07;2.23;;;;;;;;;;10038805;28;20124;-69
2023/05/17 08:21:36;;;;;;;0.98;0.90;;;;;;;;;;10043835;28;20296;-64
2023/05/17 08:26:30;;;;;;;2.03;1.27;;;;;;;;;;10040832;28;20060;-63
2023/05/17 08:31:23;;;;;;;2.70;1.10;;;;;;;;;;10035274;28;20049;-64
2023/05/17 08:36:17;;;;;;;2.58;1.40;;;;;;;;;;10031622;28;20433;-62
2023/05/17 08:41:09;;;;;;;1.75;1.38;;;;;;;;;;10032401;28;20100;-63
2023/05/17 08:46:04;;;;;;;1.83;1.70;;;;;;;;;;10036381;28;20046;-64
2023/05/17 08:50:58;;;;;;;1.60;1.20;;;;;;;;;;10042798;28;20560;-63
2023/05/17 08:55:57;;;;;;;1.52;1.30;;;;;;;;;;10039274;28;21600;-63
2023/05/17 09:00:53;;;;;;;2.35;1.25;;;;;;;;;;10034041;28;21917;-64
2023/05/17 09:05:49;;;;;;;1.40;1.30;;;;;;;;;;10033846;28;20084;-63
2023/05/17 09:10:43;;;;;;;2.40;1.10;;;;;;;;;;10032435;28;20061;-64
2023/05/17 09:15:36;;;;;;;1.90;1.80;;;;;;;;;;10034340;28;20061;-65
2023/05/17 09:20:33;;;;;;;3.65;1.40;;;;;;;;;;10034459;28;20504;-65
2023/05/17 09:25:28;;;;;;;2.53;1.95;;;;;;;;;;10031756;28;20053;-65
2023/05/17 09:30:28;;;;;;;1.58;1.45;;;;;;;;;;10034258;28;20049;-65
2023/05/17 09:35:30;;;;;;;3.35;1.60;;;;;;;;;;10040603;28;20133;-65
2023/05/17 09:40:30;;;;;;;2.13;1.85;;;;;;;;;;10031468;28;20100;-65
2023/05/17 09:45:23;;;;;;;1.63;1.40;;;;;;;;;;10051343;28;20141;-66
2023/05/17 09:50:18;;;;;;;2.58;1.77;;;;;;;;;;10041000;28;20077;-65
2023/05/17 09:55:11;;;;;;;5.43;1.52;;;;;;;;;;10034468;28;20456;-66
2023/05/17 10:00:10;;;;;;;4.28;1.70;;;;;;;;;;10027165;28;20096;-65
2023/05/17 10:05:10;;;;;;;3.85;1.67;;;;;;;;;;10028402;28;20061;-65
2023/05/17 10:10:05;;;;;;;2.53;1.70;;;;;;;;;;10034735;28;20058;-64
2023/05/17 10:15:00;;;;;;;2.58;2.03;;;;;;;;;;10027907;28;20054;-65
2023/05/17 10:19:55;;;;;;;4.93;2.00;;;;;;;;;;10032386;28;20062;-64
2023/05/17 10:24:50;;;;;;;4.03;2.33;;;;;;;;;;10037204;28;20493;-64
2023/05/17 10:29:44;;;;;;;3.65;2.13;;;;;;;;;;10035999;28;20107;-65
2023/05/17 10:34:42;;;;;;;2.70;2.40;;;;;;;;;;10035003;28;20053;-65
2023/05/17 10:39:37;;;;;;;2.03;1.83;;;;;;;;;;10037010;28;20050;-65
2023/05/17 10:44:35;;;;;;;4.05;1.90;;;;;;;;;;10030611;28;20095;-65
2023/05/17 10:49:30;;;;;;;8.25;2.15;;;;;;;;;;10023579;28;20133;-65
2023/05/17 10:54:41;;;;;;;3.22;1.70;;;;;;;;;;10028595;28;20156;-64
2023/05/17 10:59:36;;;;;;;2.88;1.90;;;;;;;;;;10045707;28;20053;-64
2023/05/17 11:04:38;;;;;;;2.97;1.98;;;;;;;;;;10034710;28;20560;-64
2023/05/17 11:09:35;;;;;;;2.00;1.80;;;;;;;;;;10033732;28;20501;-65
2023/05/17 11:14:43;;;;;;;5.78;2.00;;;;;;;;;;10027124;28;20052;-65
2023/05/17 11:19:37;;;;;;;2.15;1.95;;;;;;;;;;10025608;28;20100;-65
2023/05/17 11:24:30;;;;;;;4.47;1.88;;;;;;;;;;10030248;28;20049;-65
2023/05/17 11:29:29;;;;;;;2.70;2.50;;;;;;;;;;10029197;28;20058;-64
2023/05/17 11:34:24;;;;;;;2.63;2.38;;;;;;;;;;10027881;28;20064;-64
2023/05/17 11:39:20;;;;;;;4.03;2.05;;;;;;;;;;10032375;28;20056;-65
2023/05/17 11:44:13;;;;;;;3.15;2.30;;;;;;;;;;10034442;28;20042;-65
2023/05/17 11:49:07;;;;;;;4.45;2.63;;;;;;;;;;10032026;28;20045;-65
2023/05/17 11:54:03;;;;;;;2.83;2.60;;;;;;;;;;10030726;28;20053;-65
2023/05/17 11:58:56;;;;;;;2.92;2.63;;;;;;;;;;10043696;28;20060;-66
2023/05/17 12:03:58;;;;;;;4.80;2.65;;;;;;;;;;10040022;28;20050;-65
2023/05/17 12:08:51;;;;;;;3.97;2.80;;;;;;;;;;10036438;28;20084;-66
2023/05/17 12:13:47;;;;;;;2.75;2.55;;;;;;;;;;10031376;28;20057;-65
2023/05/17 12:18:46;;;;;;;2.58;2.20;;;;;;;;;;10032136;28;20076;-68
2023/05/17 12:23:42;;;;;;;1.80;1.70;;;;;;;;;;10037042;28;20054;-66
2023/05/17 12:28:38;;;;;;;2.80;2.20;;;;;;;;;;10032477;28;20054;-68
2023/05/17 12:33:38;;;;;;;4.55;2.53;;;;;;;;;;10025284;28;20100;-68
2023/05/17 12:38:32;;;;;;;4.13;2.00;;;;;;;;;;10026613;28;20571;-68
2023/05/17 12:43:25;;;;;;;4.50;3.40;;;;;;;;;;10034583;28;21575;-68
2023/05/17 12:48:22;;;;;;;4.20;3.03;;;;;;;;;;10012479;28;20521;-68
2023/05/17 12:53:15;;;;;;;3.22;2.92;;;;;;;;;;10025126;28;20061;-67
2023/05/17 12:58:08;;;;;;;3.38;3.00;;;;;;;;;;10019090;28;20065;-68
2023/05/17 13:03:09;;;;;;;3.13;2.92;;;;;;;;;;10019374;28;20104;-68
2023/05/17 13:08:19;;;;;;;3.72;3.15;;;;;;;;;;10023719;28;20078;-68
2023/05/17 13:13:19;;;;;;;3.70;2.90;;;;;;;;;;10020429;28;20096;-68
2023/05/17 13:18:13;;;;;;;3.60;3.28;;;;;;;;;;10040777;28;20054;-68
2023/05/17 13:23:07;;;;;;;4.30;3.05;;;;;;;;;;10025038;28;20408;-68
2023/05/17 13:28:01;;;;;;;4.30;3.35;;;;;;;;;;10017327;28;20058;-68
2023/05/17 13:32:55;;;;;;;4.03;3.38;;;;;;;;;;10019449;28;20046;-69
2023/05/17 13:37:49;;;;;;;10.43;3.28;;;;;;;;;;10013382;28;20050;-68
2023/05/17 13:42:43;;;;;;;4.35;3.03;;;;;;;;;;10022658;28;20089;-68
2023/05/17 13:47:37;;;;;;;3.47;3.17;;;;;;;;;;10021371;28;20038;-69
2023/05/17 13:52:31;;;;;;;9.23;4.00;;;;;;;;;;10033573;28;20060;-71
2023/05/17 13:57:25;;;;;;;5.40;4.90;;;;;;;;;;10016541;28;20101;-69
2023/05/17 14:02:18;;;;;;;5.55;5.05;;;;;;;;;;10016937;28;20180;-71
2023/05/17 14:07:13;;;;;;;5.63;4.93;;;;;;;;;;10017044;28;20046;-70
2023/05/17 14:12:07;;;;;;;6.88;5.07;;;;;;;;;;10015521;28;20050;-70
2023/05/17 14:17:01;;;;;;;4.88;4.47;;;;;;;;;;10019671;28;20064;-70
2023/05/17 14:21:54;;;;;;;2.22;1.90;;;;;;;;;;10024421;28;20133;-69
2023/05/17 14:26:47;;;;;;;2.47;1.85;;;;;;;;;;10018412;28;20053;-69
2023/05/17 14:31:40;;;;;;;3.08;2.72;;;;;;;;;;10019724;28;20082;-72
2023/05/17 14:36:35;;;;;;;7.47;1.80;;;;;;;;;;10019548;28;20054;-71
2023/05/17 14:41:29;;;;;;;3.78;2.35;;;;;;;;;;10019954;28;20100;-69
2023/05/17 14:46:22;;;;;;;6.18;2.00;;;;;;;;;;10011162;28;20141;-71
2023/05/17 14:51:17;;;;;;;41.55;7.68;;;;;;;;;;10011045;28;20052;-69
2023/05/17 14:56:11;;;;;;;34.88;8.40;;;;;;;;;;10038129;28;20065;-70
2023/05/17 15:01:04;;;;;;;22.75;14.82;;;;;;;;;;10026542;28;20378;-67
2023/05/17 15:05:59;;;;;;;6.60;5.85;;;;;;;;;;10028249;28;20481;-66
2023/05/17 15:10:58;;;;;;;6.82;2.40;;;;;;;;;;10029452;28;20050;-65
2023/05/17 15:15:52;;;;;;;5.78;1.67;;;;;;;;;;10030384;28;20508;-67
2023/05/17 15:20:46;;;;;;;17.63;13.77;;;;;;;;;;10031088;28;20501;-65
2023/05/17 15:25:40;;;;;;;71.13;45.28;;;;;;;;;;10037288;28;20054;-66
2023/05/17 15:30:34;;;;;;;6.20;4.68;;;;;;;;;;10024335;28;20092;-67
2023/05/17 15:35:27;;;;;;;4.97;1.63;;;;;;;;;;10047488;28;20547;-67
2023/05/17 15:40:23;;;;;;;5.70;2.90;;;;;;;;;;10039834;28;20038;-67
2023/05/17 15:45:19;;;;;;;33.53;26.73;;;;;;;;;;10047943;28;20045;-69
2023/05/17 15:50:13;;;;;;;20.75;15.35;;;;;;;;;;10052091;28;20050;-67
2023/05/17 15:55:08;;;;;;;10.07;7.30;;;;;;;;;;10043268;28;20112;-68
2023/05/17 16:00:05;;;;;;;9.02;5.50;;;;;;;;;;10039611;28;20556;-66
2023/05/17 16:05:00;;;;;;;14.25;12.80;;;;;;;;;;10046904;28;20104;-69
2023/05/17 16:09:56;;;;;;;2.10;1.90;;;;;;;;;;10048688;28;20579;-67
2023/05/17 16:14:50;;;;;;;14.27;8.43;;;;;;;;;;10038495;28;20522;-67
2023/05/17 16:19:44;;;;;;;4.63;4.15;;;;;;;;;;10049179;28;20761;-68
2023/05/17 16:24:37;;;;;;;6.15;5.32;;;;;;;;;;10036832;28;20077;-68
2023/05/17 16:29:34;;;;;;;2.38;2.17;;;;;;;;;;10037479;28;20080;-66
2023/05/17 16:34:28;;;;;;;3.47;1.90;;;;;;;;;;10034882;28;20804;-68
2023/05/17 16:39:21;;;;;;;1.70;1.60;;;;;;;;;;10032849;28;20046;-71
2023/05/17 16:44:15;;;;;;;5.18;4.68;;;;;;;;;;10045514;28;20057;-72
2023/05/17 16:49:09;;;;;;;2.88;2.58;;;;;;;;;;10021669;28;20188;-70
2023/05/17 16:54:03;;;;;;;4.28;2.22;;;;;;;;;;10022884;28;20153;-69
2023/05/17 16:58:58;;;;;;;2.20;1.80;;;;;;;;;;10033463;28;20046;-71
2023/05/17 17:03:52;;;;;;;2.17;1.92;;;;;;;;;;10024566;28;20448;-74
2023/05/17 17:08:45;;;;;;;6.10;3.25;;;;;;;;;;10020602;28;20060;-70
2023/05/17 17:13:38;;;;;;;1.48;1.30;;;;;;;;;;10021337;28;20092;-69
2023/05/17 17:18:32;;;;;;;1.55;1.25;;;;;;;;;;10020094;28;20077;-69
2023/05/17 17:23:26;;;;;;;2.45;1.35;;;;;;;;;;10022554;28;20130;-69
2023/05/17 17:28:21;;;;;;;3.40;1.30;;;;;;;;;;10022348;28;20053;-71
2023/05/17 17:33:15;;;;;;;3.28;1.52;;;;;;;;;;10024760;28;20042;-76
2023/05/17 17:38:11;;;;;;;3.80;1.98;;;;;;;;;;10015468;28;20417;-73
2023/05/17 17:43:06;;;;;;;1.70;1.60;;;;;;;;;;10023645;28;20555;-72
2023/05/17 17:48:00;;;;;;;2.65;1.50;;;;;;;;;;10017382;28;20058;-72
2023/05/17 17:52:54;;;;;;;3.15;2.00;;;;;;;;;;10007072;28;20057;-72
2023/05/17 17:57:48;;;;;;;3.17;2.50;;;;;;;;;;10011768;28;20077;-72
2023/05/17 18:02:41;;;;;;;2.72;2.22;;;;;;;;;;10024818;28;20042;-71
2023/05/17 18:07:35;;;;;;;8.88;3.15;;;;;;;;;;10024789;28;20054;-70
2023/05/17 18:12:29;;;;;;;2.65;2.45;;;;;;;;;;10016184;28;20050;-71
2023/05/17 18:17:22;;;;;;;6.63;2.45;;;;;;;;;;10022430;28;20498;-72
2023/05/17 18:22:15;;;;;;;3.58;1.83;;;;;;;;;;10019196;28;20045;-71
2023/05/17 18:27:11;;;;;;;3.63;2.40;;;;;;;;;;10018186;28;20519;-71
2023/05/17 18:32:05;;;;;;;2.63;2.40;;;;;;;;;;10012943;28;20128;-68
2023/05/17 18:36:59;;;;;;;2.70;2.47;;;;;;;;;;10022127;28;20057;-72
2023/05/17 18:41:51;;;;;;;2.65;2.45;;;;;;;;;;10012342;28;20045;-71
2023/05/17 18:46:45;;;;;;;2.95;2.17;;;;;;;;;;10017998;28;20082;-72
2023/05/17 18:51:40;;;;;;;7.18;3.03;;;;;;;;;;10014507;28;20432;-71
2023/05/17 18:56:33;;;;;;;3.22;2.92;;;;;;;;;;10015675;28;20405;-73
2023/05/17 19:01:27;;;;;;;5.68;3.00;;;;;;;;;;10009089;28;20755;-72
2023/05/17 19:06:23;;;;;;;4.22;2.70;;;;;;;;;;10030129;28;20049;-70
2023/05/17 19:11:17;;;;;;;5.75;3.10;;;;;;;;;;10016299;28;20476;-71
2023/05/17 19:16:10;;;;;;;3.28;3.08;;;;;;;;;;10015324;28;20038;-71
2023/05/17 19:21:03;;;;;;;5.43;2.80;;;;;;;;;;10009112;28;20108;-70
2023/05/17 19:25:58;;;;;;;5.22;2.88;;;;;;;;;;10020330;28;20140;-69
2023/05/17 19:30:52;;;;;;;5.43;2.65;;;;;;;;;;10017246;28;20125;-71
2023/05/17 19:35:47;;;;;;;4.00;2.70;;;;;;;;;;10016298;28;20042;-66
2023/05/17 19:40:41;;;;;;;3.95;2.67;;;;;;;;;;10023598;28;20058;-67
2023/05/17 19:45:35;;;;;;;5.85;2.30;;;;;;;;;;10019948;28;20104;-67
2023/05/17 19:50:28;;;;;;;2.92;2.40;;;;;;;;;;10018420;28;20108;-67
2023/05/17 19:55:23;;;;;;;2.55;2.28;;;;;;;;;;10022589;28;20050;-66
2023/05/17 20:00:18;;;;;;;3.50;2.53;;;;;;;;;;10022142;28;20058;-67
2023/05/17 20:05:13;;;;;;;2.53;2.33;;;;;;;;;;10029390;28;20472;-66
2023/05/17 20:10:06;;;;;;;5.50;2.88;;;;;;;;;;10021393;28;20133;-67
2023/05/17 20:15:01;;;;;;;2.97;2.15;;;;;;;;;;10026214;28;20124;-67
2023/05/17 20:19:56;;;;;;;5.82;2.55;;;;;;;;;;10029479;28;20096;-67
2023/05/17 20:24:49;;;;;;;10.30;2.40;;;;;;;;;;10029437;28;20061;-67
2023/05/17 20:29:43;;;;;;;2.40;2.20;;;;;;;;;;10030200;28;20058;-67
2023/05/17 20:34:38;;;;;;;3.28;2.10;;;;;;;;;;10025984;28;20049;-67
2023/05/17 20:39:32;;;;;;;4.97;2.42;;;;;;;;;;10028129;28;20053;-67
2023/05/17 20:44:25;;;;;;;3.17;2.80;;;;;;;;;;10026152;28;20046;-67
2023/05/17 20:49:19;;;;;;;4.97;2.88;;;;;;;;;;10024110;28;20050;-66
2023/05/17 20:54:15;;;;;;;5.47;2.70;;;;;;;;;;10027555;28;20062;-67
2023/05/17 20:59:10;;;;;;;5.80;3.97;;;;;;;;;;10029420;28;20049;-67
2023/05/17 21:04:03;;;;;;;3.72;3.42;;;;;;;;;;10028636;28;20045;-67
2023/05/17 21:09:00;;;;;;;5.20;4.07;;;;;;;;;;10026127;28;20103;-68
2023/05/17 21:13:56;;;;;;;5.07;3.60;;;;;;;;;;10028586;28;20054;-68
2023/05/17 21:18:50;;;;;;;4.50;3.25;;;;;;;;;;10025756;28;20683;-68
2023/05/17 21:23:43;;;;;;;3.50;3.20;;;;;;;;;;10031243;28;20465;-68
2023/05/17 21:28:37;;;;;;;3.90;2.67;;;;;;;;;;10029951;28;20070;-68
2023/05/17 21:33:32;;;;;;;7.95;3.03;;;;;;;;;;10036380;28;20054;-69
2023/05/17 21:38:25;;;;;;;4.45;3.55;;;;;;;;;;10031945;28;20517;-69
2023/05/17 21:43:18;;;;;;;6.72;4.10;;;;;;;;;;10028805;28;20046;-69
2023/05/17 21:48:12;;;;;;;12.80;6.07;;;;;;;;;;10030388;28;20133;-68
2023/05/17 21:53:06;;;;;;;7.82;5.30;;;;;;;;;;10028102;28;20541;-69
2023/05/17 21:58:00;;;;;;;7.72;4.30;;;;;;;;;;10028314;28;20053;-69
2023/05/17 22:02:54;;;;;;;5.72;3.42;;;;;;;;;;10027932;28;20045;-67
2023/05/17 22:07:47;;;;;;;4.18;3.78;;;;;;;;;;10032857;28;20054;-68
2023/05/17 22:12:41;;;;;;;10.32;4.57;;;;;;;;;;10030335;28;20142;-68
2023/05/17 22:17:34;;;;;;;7.35;4.20;;;;;;;;;;10028313;28;20053;-69
2023/05/17 22:22:43;;;;;;;6.17;4.03;;;;;;;;;;10032106;28;20053;-69
2023/05/17 22:27:36;;;;;;;4.82;4.32;;;;;;;;;;10028659;28;20061;-68
2023/05/17 22:32:30;;;;;;;5.90;3.80;;;;;;;;;;10029396;28;20096;-68
2023/05/17 22:37:24;;;;;;;5.55;3.55;;;;;;;;;;10031600;28;20104;-69
2023/05/17 22:42:17;;;;;;;6.10;4.32;;;;;;;;;;10027837;28;20107;-68
2023/05/17 22:47:13;;;;;;;10.07;3.60;;;;;;;;;;10025599;28;20041;-69
2023/05/17 22:52:07;;;;;;;4.40;3.70;;;;;;;;;;10026472;28;20049;-69
2023/05/17 22:57:03;;;;;;;5.53;3.63;;;;;;;;;;10031260;28;20052;-69
2023/05/17 23:01:56;;;;;;;5.90;3.70;;;;;;;;;;10034644;28;20084;-69
2023/05/17 23:06:50;;;;;;;9.63;3.75;;;;;;;;;;10035645;28;20130;-68
2023/05/17 23:11:44;;;;;;;5.93;4.18;;;;;;;;;;10019380;28;20049;-68
2023/05/17 23:16:38;;;;;;;6.55;3.58;;;;;;;;;;10026838;28;20054;-69
2023/05/17 23:21:32;;;;;;;4.00;3.60;;;;;;;;;;10027253;28;20041;-68
2023/05/17 23:26:27;;;;;;;4.15;3.75;;;;;;;;;;10027530;28;20053;-69
2023/05/17 23:31:21;;;;;;;4.70;3.90;;;;;;;;;;10024607;28;20560;-68
2023/05/17 23:36:16;;;;;;;8.85;3.40;;;;;;;;;;10025008;28;20046;-69
2023/05/17 23:41:16;;;;;;;6.28;3.22;;;;;;;;;;10025137;28;20493;-69
2023/05/17 23:46:12;;;;;;;9.63;4.18;;;;;;;;;;10025030;28;20552;-68
2023/05/17 23:51:06;;;;;;;6.18;3.08;;;;;;;;;;10033621;28;20041;-69
2023/05/17 23:56:00;;;;;;;4.07;3.70;;;;;;;;;;10033288;28;20058;-69
